DAL214 KLAX-KBOS
Flight info
| Callsign | DAL214 |
|---|---|
| Flight time | N/A |
| Altitude | 39000 |
| Route | DOTSS2 CLEEE PKE J96 CIM SLN IRK JOT J146 GIJ J554 JHW Q82 PONCT JFUND2 |
| Aircraft | A332/H-SDE3GHIJ2J3J5M1RVWXY/LB2D1 |
Departure
| Time | 2026-04-20 01:02 |
|---|---|
| Airport | Los Angeles International Airport (KLAX) |
Arrival
| Time | N/A |
|---|---|
| Airport | Boston Logan International Airport (KBOS) |
| Time | Latitude | Longitude | Altitude | Speed | Heading |
|---|---|---|---|---|---|
| 2026-04-20 00:33 | 33.93943 | -118.41063 | 125 ft | 0 kts | 83° |
| 2026-04-20 00:48 | 33.93942 | -118.41074 | 125 ft | 3 kts | 84° |
| 2026-04-20 00:49 | 33.93940 | -118.41096 | 127 ft | 3 kts | 84° |
| 2026-04-20 00:49 | 33.93938 | -118.41118 | 124 ft | 3 kts | 84° |
| 2026-04-20 00:49 | 33.93937 | -118.41141 | 125 ft | 3 kts | 120° |
| 2026-04-20 00:49 | 33.93950 | -118.41158 | 124 ft | 2 kts | 168° |
| 2026-04-20 00:50 | 33.93951 | -118.41158 | 124 ft | 0 kts | 169° |
| 2026-04-20 00:52 | 33.93948 | -118.41158 | 124 ft | 1 kts | 172° |
| 2026-04-20 00:52 | 33.93918 | -118.41154 | 126 ft | 7 kts | 176° |
| 2026-04-20 00:53 | 33.93856 | -118.41150 | 126 ft | 11 kts | 179° |
| 2026-04-20 00:53 | 33.93778 | -118.41138 | 127 ft | 7 kts | 146° |
| 2026-04-20 00:53 | 33.93766 | -118.41093 | 125 ft | 6 kts | 90° |
| 2026-04-20 00:53 | 33.93774 | -118.41021 | 127 ft | 11 kts | 82° |
| 2026-04-20 00:54 | 33.93786 | -118.40904 | 129 ft | 17 kts | 83° |
| 2026-04-20 00:54 | 33.93803 | -118.40745 | 127 ft | 21 kts | 83° |
| 2026-04-20 00:54 | 33.93820 | -118.40574 | 126 ft | 21 kts | 83° |
| 2026-04-20 00:54 | 33.93837 | -118.40399 | 126 ft | 21 kts | 83° |
| 2026-04-20 00:55 | 33.93855 | -118.40219 | 125 ft | 22 kts | 83° |
| 2026-04-20 00:55 | 33.93874 | -118.40050 | 129 ft | 20 kts | 82° |
| 2026-04-20 00:55 | 33.93891 | -118.39882 | 127 ft | 21 kts | 84° |
| 2026-04-20 00:55 | 33.93908 | -118.39706 | 126 ft | 22 kts | 83° |
| 2026-04-20 00:56 | 33.93926 | -118.39521 | 124 ft | 23 kts | 83° |
| 2026-04-20 00:56 | 33.93946 | -118.39346 | 128 ft | 20 kts | 82° |
| 2026-04-20 00:56 | 33.93964 | -118.39176 | 126 ft | 21 kts | 83° |
| 2026-04-20 00:56 | 33.93982 | -118.38997 | 127 ft | 22 kts | 84° |
| 2026-04-20 00:57 | 33.93999 | -118.38815 | 125 ft | 21 kts | 83° |
| 2026-04-20 00:57 | 33.94017 | -118.38641 | 126 ft | 20 kts | 83° |
| 2026-04-20 00:57 | 33.94035 | -118.38468 | 126 ft | 22 kts | 83° |
| 2026-04-20 00:57 | 33.94054 | -118.38284 | 125 ft | 23 kts | 83° |
| 2026-04-20 00:58 | 33.94069 | -118.38142 | 129 ft | 9 kts | 83° |
| 2026-04-20 00:58 | 33.94075 | -118.38072 | 129 ft | 8 kts | 84° |
| 2026-04-20 00:58 | 33.94075 | -118.38061 | 127 ft | 0 kts | 90° |
| 2026-04-20 00:58 | 33.94075 | -118.38056 | 128 ft | 0 kts | 95° |
| 2026-04-20 00:59 | 33.94075 | -118.38054 | 128 ft | 0 kts | 95° |
| 2026-04-20 00:59 | 33.94074 | -118.38048 | 128 ft | 2 kts | 96° |
| 2026-04-20 01:00 | 33.94066 | -118.38031 | 124 ft | 3 kts | 130° |
| 2026-04-20 01:00 | 33.94038 | -118.38008 | 129 ft | 7 kts | 153° |
| 2026-04-20 01:00 | 33.93993 | -118.38006 | 124 ft | 5 kts | 204° |
| 2026-04-20 01:00 | 33.93985 | -118.38026 | 128 ft | 0 kts | 263° |
| 2026-04-20 01:01 | 33.93985 | -118.38027 | 128 ft | 0 kts | 263° |
| 2026-04-20 01:01 | 33.93978 | -118.38101 | 128 ft | 35 kts | 263° |
| 2026-04-20 01:02 | 33.93915 | -118.38709 | 126 ft | 109 kts | 263° |
| 2026-04-20 01:02 | 33.93794 | -118.39874 | 227 ft | 168 kts | 263° |
| 2026-04-20 01:02 | 33.93634 | -118.41346 | 1000 ft | 176 kts | 262° |
| 2026-04-20 01:02 | 33.93488 | -118.42757 | 2119 ft | 170 kts | 260° |
| 2026-04-20 01:03 | 33.93336 | -118.44244 | 2762 ft | 189 kts | 261° |
| 2026-04-20 01:03 | 33.93000 | -118.45923 | 2941 ft | 225 kts | 242° |
| 2026-04-20 01:03 | 33.92102 | -118.47615 | 2955 ft | 255 kts | 231° |
| 2026-04-20 01:03 | 33.90968 | -118.49307 | 2982 ft | 262 kts | 228° |
| 2026-04-20 01:04 | 33.89778 | -118.50977 | 2987 ft | 262 kts | 226° |
| 2026-04-20 01:04 | 33.88588 | -118.52646 | 2998 ft | 262 kts | 227° |
| 2026-04-20 01:04 | 33.87369 | -118.54277 | 3275 ft | 263 kts | 220° |
| 2026-04-20 01:04 | 33.85844 | -118.55476 | 3963 ft | 262 kts | 199° |
| 2026-04-20 01:05 | 33.84071 | -118.55872 | 4615 ft | 258 kts | 176° |
| 2026-04-20 01:05 | 33.82312 | -118.55580 | 4926 ft | 259 kts | 167° |
| 2026-04-20 01:05 | 33.80550 | -118.55094 | 5081 ft | 261 kts | 165° |
| 2026-04-20 01:05 | 33.78787 | -118.54585 | 5203 ft | 260 kts | 165° |
| 2026-04-20 01:06 | 33.77022 | -118.54086 | 5439 ft | 262 kts | 166° |
| 2026-04-20 01:06 | 33.75245 | -118.53592 | 5736 ft | 263 kts | 166° |
| 2026-04-20 01:06 | 33.73457 | -118.53102 | 6039 ft | 263 kts | 166° |
| 2026-04-20 01:06 | 33.71700 | -118.52474 | 6344 ft | 264 kts | 156° |
| 2026-04-20 01:07 | 33.70145 | -118.51297 | 6636 ft | 267 kts | 138° |
| 2026-04-20 01:07 | 33.69008 | -118.49526 | 6921 ft | 270 kts | 118° |
| 2026-04-20 01:07 | 33.68287 | -118.47448 | 7342 ft | 274 kts | 112° |
| 2026-04-20 01:07 | 33.67655 | -118.45277 | 7907 ft | 276 kts | 111° |
| 2026-04-20 01:08 | 33.67027 | -118.43087 | 8459 ft | 278 kts | 111° |
| 2026-04-20 01:08 | 33.66386 | -118.40877 | 9046 ft | 281 kts | 112° |
| 2026-04-20 01:08 | 33.65733 | -118.38648 | 9637 ft | 284 kts | 112° |
| 2026-04-20 01:08 | 33.65080 | -118.36426 | 10185 ft | 288 kts | 111° |
| 2026-04-20 01:09 | 33.64559 | -118.34047 | 10695 ft | 305 kts | 101° |
| 2026-04-20 01:09 | 33.64405 | -118.31418 | 10947 ft | 329 kts | 94° |
| 2026-04-20 01:09 | 33.64399 | -118.28568 | 10980 ft | 350 kts | 92° |
| 2026-04-20 01:09 | 33.64421 | -118.25612 | 10985 ft | 355 kts | 92° |
| 2026-04-20 01:10 | 33.64441 | -118.22632 | 10980 ft | 355 kts | 92° |
| 2026-04-20 01:10 | 33.64460 | -118.16713 | 10979 ft | 355 kts | 92° |
| 2026-04-20 01:10 | 33.64464 | -118.13748 | 10973 ft | 355 kts | 92° |
| 2026-04-20 01:11 | 33.64464 | -118.10784 | 10980 ft | 355 kts | 92° |
| 2026-04-20 01:11 | 33.64464 | -118.07819 | 10983 ft | 355 kts | 92° |
| 2026-04-20 01:11 | 33.64462 | -118.04888 | 11051 ft | 356 kts | 92° |
| 2026-04-20 01:11 | 33.64458 | -118.01895 | 11563 ft | 359 kts | 92° |
| 2026-04-20 01:12 | 33.64454 | -117.98883 | 12404 ft | 361 kts | 92° |
| 2026-04-20 01:12 | 33.64450 | -117.95859 | 13176 ft | 364 kts | 92° |
| 2026-04-20 01:12 | 33.64444 | -117.92828 | 13891 ft | 368 kts | 92° |
| 2026-04-20 01:12 | 33.64437 | -117.89721 | 14509 ft | 372 kts | 92° |
| 2026-04-20 01:13 | 33.64430 | -117.86597 | 14876 ft | 374 kts | 92° |
| 2026-04-20 01:13 | 33.64422 | -117.83468 | 14984 ft | 376 kts | 92° |
| 2026-04-20 01:13 | 33.64486 | -117.80324 | 14992 ft | 379 kts | 88° |
| 2026-04-20 01:13 | 33.64882 | -117.77174 | 15275 ft | 384 kts | 81° |
| 2026-04-20 01:14 | 33.65461 | -117.74034 | 15923 ft | 387 kts | 79° |
| 2026-04-20 01:14 | 33.66073 | -117.70869 | 16601 ft | 391 kts | 79° |
| 2026-04-20 01:14 | 33.66692 | -117.67679 | 17240 ft | 395 kts | 79° |
| 2026-04-20 01:14 | 33.67310 | -117.64479 | 17854 ft | 399 kts | 79° |
| 2026-04-20 01:15 | 33.67938 | -117.61217 | 18440 ft | 403 kts | 79° |
| 2026-04-20 01:15 | 33.68572 | -117.57914 | 18900 ft | 410 kts | 79° |
| 2026-04-20 01:15 | 33.68921 | -117.54543 | 19481 ft | 402 kts | 107° |
| 2026-04-20 01:15 | 33.67368 | -117.51811 | 19425 ft | 410 kts | 137° |
| 2026-04-20 01:16 | 33.65612 | -117.49080 | 19613 ft | 427 kts | 120° |
| 2026-04-20 01:16 | 33.64676 | -117.45695 | 20282 ft | 430 kts | 101° |
| 2026-04-20 01:16 | 33.64650 | -117.42110 | 20903 ft | 434 kts | 83° |
| 2026-04-20 01:16 | 33.65537 | -117.38624 | 21358 ft | 441 kts | 64° |
| 2026-04-20 01:17 | 33.67287 | -117.35582 | 21812 ft | 446 kts | 46° |
| 2026-04-20 01:17 | 33.69605 | -117.33091 | 22311 ft | 448 kts | 41° |
| 2026-04-20 01:17 | 33.71645 | -117.30246 | 22784 ft | 452 kts | 57° |
| 2026-04-20 01:17 | 33.73025 | -117.26843 | 23265 ft | 454 kts | 72° |
| 2026-04-20 01:18 | 33.73634 | -117.23119 | 23673 ft | 456 kts | 85° |
| 2026-04-20 01:18 | 33.73838 | -117.19359 | 24050 ft | 459 kts | 88° |
| 2026-04-20 01:18 | 33.73975 | -117.15493 | 24509 ft | 461 kts | 88° |
| 2026-04-20 01:18 | 33.74106 | -117.11637 | 24949 ft | 463 kts | 88° |
| 2026-04-20 01:19 | 33.74241 | -117.07751 | 25346 ft | 466 kts | 88° |
| 2026-04-20 01:19 | 33.74379 | -117.03845 | 25738 ft | 468 kts | 88° |
| 2026-04-20 01:19 | 33.74519 | -116.99919 | 26116 ft | 471 kts | 88° |
| 2026-04-20 01:19 | 33.74590 | -116.96015 | 26501 ft | 473 kts | 91° |
| 2026-04-20 01:20 | 33.74522 | -116.92033 | 26880 ft | 476 kts | 92° |
| 2026-04-20 01:20 | 33.74426 | -116.88086 | 27253 ft | 478 kts | 92° |
| 2026-04-20 01:20 | 33.74327 | -116.84080 | 27584 ft | 481 kts | 93° |
| 2026-04-20 01:20 | 33.74229 | -116.80046 | 27905 ft | 485 kts | 92° |
| 2026-04-20 01:21 | 33.74131 | -116.75968 | 28319 ft | 486 kts | 92° |
| 2026-04-20 01:21 | 33.74034 | -116.71885 | 28639 ft | 490 kts | 92° |
| 2026-04-20 01:21 | 33.73936 | -116.67823 | 29043 ft | 491 kts | 92° |
| 2026-04-20 01:21 | 33.73836 | -116.63692 | 29405 ft | 494 kts | 92° |
| 2026-04-20 01:22 | 33.73734 | -116.59541 | 29625 ft | 498 kts | 92° |
| 2026-04-20 01:22 | 33.73632 | -116.55423 | 29999 ft | 498 kts | 93° |
| 2026-04-20 01:22 | 33.73530 | -116.51277 | 30556 ft | 493 kts | 94° |
| 2026-04-20 01:22 | 33.73425 | -116.47163 | 30925 ft | 493 kts | 93° |
| 2026-04-20 01:23 | 33.73318 | -116.43036 | 31183 ft | 496 kts | 93° |
| 2026-04-20 01:23 | 33.73210 | -116.38884 | 31483 ft | 498 kts | 93° |
| 2026-04-20 01:23 | 33.73099 | -116.34714 | 31803 ft | 498 kts | 93° |
| 2026-04-20 01:23 | 33.73025 | -116.31945 | 32036 ft | 499 kts | 93° |
| 2026-04-20 01:24 | 33.72913 | -116.27785 | 32376 ft | 499 kts | 93° |
| 2026-04-20 01:24 | 33.72799 | -116.23615 | 32737 ft | 499 kts | 93° |
| 2026-04-20 01:24 | 33.72685 | -116.19469 | 33211 ft | 496 kts | 93° |
| 2026-04-20 01:24 | 33.72569 | -116.15326 | 33538 ft | 497 kts | 93° |
| 2026-04-20 01:25 | 33.72478 | -116.11172 | 33848 ft | 498 kts | 90° |
| 2026-04-20 01:25 | 33.72742 | -116.07020 | 34101 ft | 500 kts | 81° |
| 2026-04-20 01:25 | 33.73546 | -116.02932 | 34335 ft | 502 kts | 75° |
| 2026-04-20 01:25 | 33.74563 | -115.98911 | 34557 ft | 504 kts | 72° |
| 2026-04-20 01:26 | 33.75655 | -115.94957 | 34773 ft | 505 kts | 72° |
| 2026-04-20 01:26 | 33.76799 | -115.90951 | 34971 ft | 507 kts | 72° |
| 2026-04-20 01:26 | 33.77951 | -115.86938 | 35167 ft | 509 kts | 72° |
| 2026-04-20 01:26 | 33.79102 | -115.82898 | 35395 ft | 510 kts | 72° |
| 2026-04-20 01:27 | 33.80244 | -115.78844 | 35604 ft | 511 kts | 72° |
| 2026-04-20 01:27 | 33.81376 | -115.74781 | 35813 ft | 512 kts | 72° |
| 2026-04-20 01:27 | 33.82504 | -115.70702 | 36013 ft | 514 kts | 73° |
| 2026-04-20 01:27 | 33.83615 | -115.66663 | 36206 ft | 515 kts | 73° |
| 2026-04-20 01:28 | 33.84740 | -115.62564 | 36389 ft | 517 kts | 73° |
| 2026-04-20 01:28 | 33.85871 | -115.58436 | 36583 ft | 518 kts | 73° |
| 2026-04-20 01:28 | 33.87004 | -115.54294 | 36775 ft | 520 kts | 73° |
| 2026-04-20 01:28 | 33.88134 | -115.50163 | 36968 ft | 521 kts | 73° |
| 2026-04-20 01:29 | 33.89250 | -115.46076 | 37141 ft | 522 kts | 73° |
| 2026-04-20 01:29 | 33.90390 | -115.41899 | 37325 ft | 523 kts | 73° |
| 2026-04-20 01:29 | 33.91531 | -115.37710 | 37497 ft | 525 kts | 73° |
| 2026-04-20 01:29 | 33.92653 | -115.33582 | 37693 ft | 526 kts | 73° |
| 2026-04-20 01:30 | 33.93792 | -115.29384 | 37824 ft | 528 kts | 73° |
| 2026-04-20 01:30 | 33.94932 | -115.25178 | 37958 ft | 530 kts | 73° |
| 2026-04-20 01:30 | 33.96081 | -115.20935 | 38137 ft | 531 kts | 73° |
| 2026-04-20 01:30 | 33.97224 | -115.16703 | 38321 ft | 532 kts | 73° |
| 2026-04-20 01:31 | 33.98358 | -115.12501 | 38493 ft | 533 kts | 73° |
| 2026-04-20 01:31 | 33.99505 | -115.08246 | 38647 ft | 534 kts | 74° |
| 2026-04-20 01:31 | 34.00653 | -115.03976 | 38774 ft | 535 kts | 73° |
| 2026-04-20 01:31 | 34.01804 | -114.99693 | 38801 ft | 535 kts | 74° |
| 2026-04-20 01:32 | 34.04091 | -114.91160 | 38813 ft | 534 kts | 74° |
| 2026-04-20 01:32 | 34.06369 | -114.82635 | 38816 ft | 533 kts | 74° |
| 2026-04-20 01:33 | 34.08627 | -114.74155 | 38812 ft | 533 kts | 74° |
| 2026-04-20 01:33 | 34.10912 | -114.65636 | 38813 ft | 534 kts | 73° |
| 2026-04-20 01:34 | 34.13305 | -114.57137 | 38804 ft | 535 kts | 72° |
| 2026-04-20 01:34 | 34.15724 | -114.48638 | 38801 ft | 539 kts | 73° |
| 2026-04-20 01:35 | 34.18158 | -114.40033 | 38798 ft | 540 kts | 73° |
| 2026-04-20 01:35 | 34.20568 | -114.31451 | 38798 ft | 539 kts | 73° |
| 2026-04-20 01:36 | 34.22955 | -114.22911 | 38799 ft | 539 kts | 73° |
| 2026-04-20 01:36 | 34.25352 | -114.14312 | 38799 ft | 539 kts | 73° |
| 2026-04-20 01:37 | 34.27747 | -114.05690 | 38803 ft | 539 kts | 73° |
| 2026-04-20 01:37 | 34.30136 | -113.97066 | 38811 ft | 540 kts | 73° |
| 2026-04-20 01:38 | 34.32508 | -113.88476 | 38815 ft | 540 kts | 73° |
| 2026-04-20 01:38 | 34.34884 | -113.79853 | 38818 ft | 538 kts | 73° |
| 2026-04-20 01:39 | 34.37236 | -113.71282 | 38829 ft | 538 kts | 73° |
| 2026-04-20 01:39 | 34.39596 | -113.62655 | 38829 ft | 540 kts | 73° |
| 2026-04-20 01:40 | 34.41940 | -113.54064 | 38842 ft | 540 kts | 73° |
| 2026-04-20 01:40 | 34.44295 | -113.45406 | 38853 ft | 540 kts | 73° |
| 2026-04-20 01:41 | 34.46636 | -113.36768 | 38855 ft | 540 kts | 73° |
| 2026-04-20 01:41 | 34.48967 | -113.28142 | 38871 ft | 541 kts | 73° |
| 2026-04-20 01:42 | 34.51307 | -113.19459 | 38897 ft | 541 kts | 73° |
| 2026-04-20 01:42 | 34.53640 | -113.10771 | 38897 ft | 541 kts | 73° |
| 2026-04-20 01:43 | 34.55966 | -113.02081 | 38921 ft | 542 kts | 73° |
| 2026-04-20 01:43 | 34.58278 | -112.93415 | 38938 ft | 543 kts | 73° |
| 2026-04-20 01:44 | 34.60605 | -112.84670 | 38949 ft | 543 kts | 73° |
| 2026-04-20 01:44 | 34.62922 | -112.75928 | 38945 ft | 543 kts | 73° |
| 2026-04-20 01:45 | 34.65234 | -112.67175 | 38949 ft | 544 kts | 73° |
| 2026-04-20 01:45 | 34.67544 | -112.58403 | 38953 ft | 544 kts | 73° |
| 2026-04-20 01:46 | 34.69837 | -112.49670 | 39091 ft | 545 kts | 73° |
| 2026-04-20 01:46 | 34.71994 | -112.40851 | 39089 ft | 544 kts | 76° |
| 2026-04-20 01:47 | 34.74012 | -112.31966 | 39077 ft | 545 kts | 76° |
| 2026-04-20 01:47 | 34.76011 | -112.23112 | 39042 ft | 545 kts | 76° |
| 2026-04-20 01:48 | 34.78029 | -112.14234 | 39008 ft | 545 kts | 76° |
| 2026-04-20 01:48 | 34.80046 | -112.05375 | 39027 ft | 545 kts | 76° |
| 2026-04-20 01:49 | 34.82073 | -111.96448 | 39049 ft | 545 kts | 76° |
| 2026-04-20 01:49 | 34.84078 | -111.87583 | 39076 ft | 545 kts | 76° |
| 2026-04-20 01:50 | 34.86086 | -111.78669 | 39062 ft | 545 kts | 76° |
| 2026-04-20 01:50 | 34.88088 | -111.69748 | 39071 ft | 546 kts | 76° |
| 2026-04-20 01:51 | 34.90073 | -111.60869 | 39054 ft | 546 kts | 76° |
| 2026-04-20 01:51 | 34.92061 | -111.51941 | 39021 ft | 546 kts | 76° |
| 2026-04-20 01:52 | 34.94051 | -111.42974 | 39026 ft | 546 kts | 76° |
| 2026-04-20 01:52 | 34.96020 | -111.34067 | 39024 ft | 546 kts | 76° |
| 2026-04-20 01:53 | 34.97992 | -111.25104 | 39016 ft | 546 kts | 76° |
| 2026-04-20 01:53 | 34.99957 | -111.16144 | 39016 ft | 546 kts | 76° |
| 2026-04-20 01:54 | 35.01899 | -111.07254 | 39022 ft | 545 kts | 76° |
| 2026-04-20 01:54 | 35.03846 | -110.98308 | 39040 ft | 544 kts | 76° |
| 2026-04-20 01:55 | 35.05780 | -110.89385 | 39052 ft | 544 kts | 76° |
| 2026-04-20 01:55 | 35.07710 | -110.80446 | 39070 ft | 544 kts | 76° |
| 2026-04-20 01:56 | 35.09624 | -110.71547 | 39081 ft | 545 kts | 76° |
| 2026-04-20 01:56 | 35.11547 | -110.62570 | 39065 ft | 545 kts | 76° |
| 2026-04-20 01:57 | 35.12506 | -110.58082 | 38961 ft | 545 kts | 77° |
| 2026-04-20 01:57 | 35.13466 | -110.53582 | 38966 ft | 545 kts | 77° |
| 2026-04-20 01:57 | 35.15362 | -110.44663 | 38973 ft | 545 kts | 77° |
| 2026-04-20 01:58 | 35.17262 | -110.35694 | 38975 ft | 545 kts | 77° |
| 2026-04-20 01:58 | 35.19160 | -110.26693 | 38979 ft | 545 kts | 77° |
| 2026-04-20 01:59 | 35.21038 | -110.17757 | 38976 ft | 545 kts | 77° |
| 2026-04-20 01:59 | 35.22919 | -110.08766 | 38971 ft | 545 kts | 77° |
| 2026-04-20 02:00 | 35.24793 | -109.99776 | 38984 ft | 545 kts | 77° |
| 2026-04-20 02:00 | 35.26660 | -109.90780 | 38985 ft | 545 kts | 77° |
| 2026-04-20 02:01 | 35.28524 | -109.81766 | 38984 ft | 545 kts | 77° |
| 2026-04-20 02:01 | 35.30376 | -109.72770 | 38983 ft | 545 kts | 77° |
| 2026-04-20 02:02 | 35.32210 | -109.63828 | 38989 ft | 544 kts | 77° |